sensor_id;sensor_type;location;lat;lon;timestamp;temperature;humidity
53045;DHT22;38930;52.766;6.884;2023-02-11T00:00:55;6.10;99.90
53045;DHT22;38930;52.766;6.884;2023-02-11T00:03:21;6.10;99.90
53045;DHT22;38930;52.766;6.884;2023-02-11T00:06:02;6.10;99.90
53045;DHT22;38930;52.766;6.884;2023-02-11T00:08:28;6.10;99.90
53045;DHT22;38930;52.766;6.884;2023-02-11T00:10:55;6.10;99.90
53045;DHT22;38930;52.766;6.884;2023-02-11T00:13:22;6.10;99.90
53045;DHT22;38930;52.766;6.884;2023-02-11T00:15:48;6.10;99.90
53045;DHT22;38930;52.766;6.884;2023-02-11T00:18:14;6.30;99.90
53045;DHT22;38930;52.766;6.884;2023-02-11T00:20:39;7.00;99.90
53045;DHT22;38930;52.766;6.884;2023-02-11T00:23:08;6.10;99.90
53045;DHT22;38930;52.766;6.884;2023-02-11T00:25:41;6.20;99.90
53045;DHT22;38930;52.766;6.884;2023-02-11T00:28:09;6.20;99.90
53045;DHT22;38930;52.766;6.884;2023-02-11T00:30:35;6.20;99.90
53045;DHT22;38930;52.766;6.884;2023-02-11T00:33:01;6.20;99.90
53045;DHT22;38930;52.766;6.884;2023-02-11T00:35:27;6.20;99.90
53045;DHT22;38930;52.766;6.884;2023-02-11T00:37:53;6.20;99.90
53045;DHT22;38930;52.766;6.884;2023-02-11T00:40:19;6.20;99.90
53045;DHT22;38930;52.766;6.884;2023-02-11T00:42:45;6.20;99.90
53045;DHT22;38930;52.766;6.884;2023-02-11T00:45:11;6.30;99.90
53045;DHT22;38930;52.766;6.884;2023-02-11T00:47:36;6.20;99.90
53045;DHT22;38930;52.766;6.884;2023-02-11T00:50:04;6.20;99.90
53045;DHT22;38930;52.766;6.884;2023-02-11T00:52:30;6.30;99.90
53045;DHT22;38930;52.766;6.884;2023-02-11T00:54:56;6.30;99.90
53045;DHT22;38930;52.766;6.884;2023-02-11T00:57:22;6.30;99.90
53045;DHT22;38930;52.766;6.884;2023-02-11T00:59:48;6.30;99.90
53045;DHT22;38930;52.766;6.884;2023-02-11T01:02:15;6.30;99.90
53045;DHT22;38930;52.766;6.884;2023-02-11T01:04:41;7.20;99.90
53045;DHT22;38930;52.766;6.884;2023-02-11T01:07:07;6.30;99.90
53045;DHT22;38930;52.766;6.884;2023-02-11T01:09:32;6.30;99.90
53045;DHT22;38930;52.766;6.884;2023-02-11T01:11:58;6.30;99.90
53045;DHT22;38930;52.766;6.884;2023-02-11T01:14:24;6.30;99.90
53045;DHT22;38930;52.766;6.884;2023-02-11T01:16:49;6.30;99.90
53045;DHT22;38930;52.766;6.884;2023-02-11T01:19:15;6.30;99.90
53045;DHT22;38930;52.766;6.884;2023-02-11T01:21:40;6.20;99.90
53045;DHT22;38930;52.766;6.884;2023-02-11T01:24:06;6.30;99.90
53045;DHT22;38930;52.766;6.884;2023-02-11T01:26:32;6.30;99.90
53045;DHT22;38930;52.766;6.884;2023-02-11T01:28:58;6.30;99.90
53045;DHT22;38930;52.766;6.884;2023-02-11T01:31:25;6.80;99.90
53045;DHT22;38930;52.766;6.884;2023-02-11T01:33:51;6.30;99.90
53045;DHT22;38930;52.766;6.884;2023-02-11T01:36:17;6.30;99.90
53045;DHT22;38930;52.766;6.884;2023-02-11T01:38:42;6.40;99.90
53045;DHT22;38930;52.766;6.884;2023-02-11T01:41:12;6.30;99.90
53045;DHT22;38930;52.766;6.884;2023-02-11T01:43:44;6.50;99.90
53045;DHT22;38930;52.766;6.884;2023-02-11T01:46:23;6.30;99.90
53045;DHT22;38930;52.766;6.884;2023-02-11T01:48:58;6.30;99.90
53045;DHT22;38930;52.766;6.884;2023-02-11T01:51:30;6.30;99.90
53045;DHT22;38930;52.766;6.884;2023-02-11T01:53:57;6.30;99.90
53045;DHT22;38930;52.766;6.884;2023-02-11T01:56:56;6.30;99.90
53045;DHT22;38930;52.766;6.884;2023-02-11T02:02:57;6.20;99.90
53045;DHT22;38930;52.766;6.884;2023-02-11T02:05:37;6.20;99.90
53045;DHT22;38930;52.766;6.884;2023-02-11T02:10:45;6.30;99.90
53045;DHT22;38930;52.766;6.884;2023-02-11T02:13:12;6.30;99.90
53045;DHT22;38930;52.766;6.884;2023-02-11T02:15:42;7.20;99.90
53045;DHT22;38930;52.766;6.884;2023-02-11T02:30:14;6.20;99.90
53045;DHT22;38930;52.766;6.884;2023-02-11T02:33:00;6.20;99.90
53045;DHT22;38930;52.766;6.884;2023-02-11T02:35:45;6.20;99.90
53045;DHT22;38930;52.766;6.884;2023-02-11T02:38:40;6.20;99.90
53045;DHT22;38930;52.766;6.884;2023-02-11T02:41:16;6.20;99.90
53045;DHT22;38930;52.766;6.884;2023-02-11T02:43:50;6.20;99.90
53045;DHT22;38930;52.766;6.884;2023-02-11T02:46:21;6.20;99.90
53045;DHT22;38930;52.766;6.884;2023-02-11T02:48:47;6.30;99.90
53045;DHT22;38930;52.766;6.884;2023-02-11T02:55:21;6.30;99.90
53045;DHT22;38930;52.766;6.884;2023-02-11T02:58:04;6.30;99.90
53045;DHT22;38930;52.766;6.884;2023-02-11T03:03:42;6.30;99.90
53045;DHT22;38930;52.766;6.884;2023-02-11T03:06:28;6.30;99.90
53045;DHT22;38930;52.766;6.884;2023-02-11T03:09:17;6.30;99.90
53045;DHT22;38930;52.766;6.884;2023-02-11T03:11:46;6.30;99.90
53045;DHT22;38930;52.766;6.884;2023-02-11T03:14:16;6.40;99.90
53045;DHT22;38930;52.766;6.884;2023-02-11T03:16:44;6.40;99.90
53045;DHT22;38930;52.766;6.884;2023-02-11T03:19:20;6.30;99.90
53045;DHT22;38930;52.766;6.884;2023-02-11T03:21:48;6.30;99.90
53045;DHT22;38930;52.766;6.884;2023-02-11T03:24:34;6.30;99.90
53045;DHT22;38930;52.766;6.884;2023-02-11T03:27:26;6.40;99.90
53045;DHT22;38930;52.766;6.884;2023-02-11T03:30:21;6.40;99.90
53045;DHT22;38930;52.766;6.884;2023-02-11T03:32:50;6.30;99.90
53045;DHT22;38930;52.766;6.884;2023-02-11T03:35:40;6.40;99.90
53045;DHT22;38930;52.766;6.884;2023-02-11T03:38:24;6.30;99.90
53045;DHT22;38930;52.766;6.884;2023-02-11T03:40:51;6.30;99.90
53045;DHT22;38930;52.766;6.884;2023-02-11T03:43:21;6.40;99.90
53045;DHT22;38930;52.766;6.884;2023-02-11T03:45:52;6.40;99.90
53045;DHT22;38930;52.766;6.884;2023-02-11T03:50:53;6.40;99.90
53045;DHT22;38930;52.766;6.884;2023-02-11T03:53:21;6.40;99.90
53045;DHT22;38930;52.766;6.884;2023-02-11T03:55:49;6.40;99.90
53045;DHT22;38930;52.766;6.884;2023-02-11T03:58:15;6.40;99.90
53045;DHT22;38930;52.766;6.884;2023-02-11T04:00:42;6.40;99.90
53045;DHT22;38930;52.766;6.884;2023-02-11T04:03:08;6.40;99.90
53045;DHT22;38930;52.766;6.884;2023-02-11T04:05:35;6.40;99.90
53045;DHT22;38930;52.766;6.884;2023-02-11T04:08:05;6.40;99.90
53045;DHT22;38930;52.766;6.884;2023-02-11T04:10:30;6.40;99.90
53045;DHT22;38930;52.766;6.884;2023-02-11T04:12:56;6.40;99.90
53045;DHT22;38930;52.766;6.884;2023-02-11T04:15:22;6.30;99.90
53045;DHT22;38930;52.766;6.884;2023-02-11T04:17:48;6.30;99.90
53045;DHT22;38930;52.766;6.884;2023-02-11T04:20:14;6.30;99.90
53045;DHT22;38930;52.766;6.884;2023-02-11T04:22:39;6.30;99.90
53045;DHT22;38930;52.766;6.884;2023-02-11T04:25:05;6.30;99.90
53045;DHT22;38930;52.766;6.884;2023-02-11T04:27:32;6.30;99.90
53045;DHT22;38930;52.766;6.884;2023-02-11T04:29:57;6.30;99.90
53045;DHT22;38930;52.766;6.884;2023-02-11T04:32:23;6.50;99.90
53045;DHT22;38930;52.766;6.884;2023-02-11T04:34:48;6.30;99.90
53045;DHT22;38930;52.766;6.884;2023-02-11T04:37:14;6.30;99.90
53045;DHT22;38930;52.766;6.884;2023-02-11T04:39:40;6.30;99.90
53045;DHT22;38930;52.766;6.884;2023-02-11T04:42:06;6.30;99.90
53045;DHT22;38930;52.766;6.884;2023-02-11T04:44:31;6.30;99.90
53045;DHT22;38930;52.766;6.884;2023-02-11T04:46:57;6.40;99.90
53045;DHT22;38930;52.766;6.884;2023-02-11T04:49:23;6.30;99.90
53045;DHT22;38930;52.766;6.884;2023-02-11T04:51:49;6.40;99.90
53045;DHT22;38930;52.766;6.884;2023-02-11T04:54:14;6.40;99.90
53045;DHT22;38930;52.766;6.884;2023-02-11T04:56:40;6.40;99.90
53045;DHT22;38930;52.766;6.884;2023-02-11T04:59:06;6.40;99.90
53045;DHT22;38930;52.766;6.884;2023-02-11T05:01:32;6.80;99.90
53045;DHT22;38930;52.766;6.884;2023-02-11T05:03:57;6.40;99.90
53045;DHT22;38930;52.766;6.884;2023-02-11T05:06:23;6.50;99.90
53045;DHT22;38930;52.766;6.884;2023-02-11T05:08:49;6.70;99.90
53045;DHT22;38930;52.766;6.884;2023-02-11T05:11:17;6.50;99.90
53045;DHT22;38930;52.766;6.884;2023-02-11T05:13:43;6.50;99.90
53045;DHT22;38930;52.766;6.884;2023-02-11T05:16:09;6.50;99.90
53045;DHT22;38930;52.766;6.884;2023-02-11T05:18:39;6.50;99.90
53045;DHT22;38930;52.766;6.884;2023-02-11T05:21:10;6.50;99.90
53045;DHT22;38930;52.766;6.884;2023-02-11T05:23:37;6.50;99.90
53045;DHT22;38930;52.766;6.884;2023-02-11T05:26:03;6.60;99.90
53045;DHT22;38930;52.766;6.884;2023-02-11T05:28:29;6.50;99.90
53045;DHT22;38930;52.766;6.884;2023-02-11T05:30:55;6.50;99.90
53045;DHT22;38930;52.766;6.884;2023-02-11T05:33:21;6.50;99.90
53045;DHT22;38930;52.766;6.884;2023-02-11T05:35:46;6.50;99.90
53045;DHT22;38930;52.766;6.884;2023-02-11T05:38:12;6.60;99.90
53045;DHT22;38930;52.766;6.884;2023-02-11T05:40:38;7.10;99.90
53045;DHT22;38930;52.766;6.884;2023-02-11T05:43:04;6.90;99.90
53045;DHT22;38930;52.766;6.884;2023-02-11T05:45:29;6.60;99.90
53045;DHT22;38930;52.766;6.884;2023-02-11T05:47:56;6.60;99.90
53045;DHT22;38930;52.766;6.884;2023-02-11T05:50:21;6.60;99.90
53045;DHT22;38930;52.766;6.884;2023-02-11T05:52:47;6.70;99.90
53045;DHT22;38930;52.766;6.884;2023-02-11T05:55:12;6.70;99.90
53045;DHT22;38930;52.766;6.884;2023-02-11T05:57:38;6.70;99.90
53045;DHT22;38930;52.766;6.884;2023-02-11T06:00:04;6.70;99.90
53045;DHT22;38930;52.766;6.884;2023-02-11T06:02:30;6.70;99.90
53045;DHT22;38930;52.766;6.884;2023-02-11T06:04:56;7.00;99.90
53045;DHT22;38930;52.766;6.884;2023-02-11T06:07:21;7.50;99.90
53045;DHT22;38930;52.766;6.884;2023-02-11T06:09:47;6.70;99.90
53045;DHT22;38930;52.766;6.884;2023-02-11T06:12:13;6.70;99.90
53045;DHT22;38930;52.766;6.884;2023-02-11T06:14:39;6.70;99.90
53045;DHT22;38930;52.766;6.884;2023-02-11T06:17:04;6.70;99.90
53045;DHT22;38930;52.766;6.884;2023-02-11T06:19:30;6.70;99.90
53045;DHT22;38930;52.766;6.884;2023-02-11T06:21:56;6.70;99.90
53045;DHT22;38930;52.766;6.884;2023-02-11T06:24:22;7.00;99.90
53045;DHT22;38930;52.766;6.884;2023-02-11T06:26:48;6.70;99.90
53045;DHT22;38930;52.766;6.884;2023-02-11T06:29:14;6.70;99.90
53045;DHT22;38930;52.766;6.884;2023-02-11T06:31:39;6.70;99.90
53045;DHT22;38930;52.766;6.884;2023-02-11T06:34:06;7.30;99.90
53045;DHT22;38930;52.766;6.884;2023-02-11T06:36:32;6.80;99.90
53045;DHT22;38930;52.766;6.884;2023-02-11T06:38:57;6.70;99.90
53045;DHT22;38930;52.766;6.884;2023-02-11T06:41:23;6.70;99.90
53045;DHT22;38930;52.766;6.884;2023-02-11T06:43:49;6.80;99.90
53045;DHT22;38930;52.766;6.884;2023-02-11T06:46:16;6.80;99.90
53045;DHT22;38930;52.766;6.884;2023-02-11T06:48:42;6.80;99.90
53045;DHT22;38930;52.766;6.884;2023-02-11T06:51:09;6.70;99.90
53045;DHT22;38930;52.766;6.884;2023-02-11T06:53:41;6.70;99.90
53045;DHT22;38930;52.766;6.884;2023-02-11T06:56:09;6.70;99.90
53045;DHT22;38930;52.766;6.884;2023-02-11T06:58:36;6.70;99.90
53045;DHT22;38930;52.766;6.884;2023-02-11T07:01:10;6.70;99.90
53045;DHT22;38930;52.766;6.884;2023-02-11T07:03:38;6.70;99.90
53045;DHT22;38930;52.766;6.884;2023-02-11T07:06:05;7.30;99.90
53045;DHT22;38930;52.766;6.884;2023-02-11T07:08:35;6.70;99.90
53045;DHT22;38930;52.766;6.884;2023-02-11T07:11:01;6.80;99.90
53045;DHT22;38930;52.766;6.884;2023-02-11T07:13:32;6.70;99.90
53045;DHT22;38930;52.766;6.884;2023-02-11T07:15:58;6.70;99.90
53045;DHT22;38930;52.766;6.884;2023-02-11T07:18:23;6.70;99.90
53045;DHT22;38930;52.766;6.884;2023-02-11T07:20:49;6.70;99.90
53045;DHT22;38930;52.766;6.884;2023-02-11T07:23:15;6.70;99.90
53045;DHT22;38930;52.766;6.884;2023-02-11T07:25:40;6.70;99.90
53045;DHT22;38930;52.766;6.884;2023-02-11T07:28:06;6.80;99.90
53045;DHT22;38930;52.766;6.884;2023-02-11T07:30:31;6.70;99.90
53045;DHT22;38930;52.766;6.884;2023-02-11T07:32:57;6.80;99.90
53045;DHT22;38930;52.766;6.884;2023-02-11T07:35:23;7.00;99.90
53045;DHT22;38930;52.766;6.884;2023-02-11T07:37:48;6.80;99.90
53045;DHT22;38930;52.766;6.884;2023-02-11T07:40:14;6.80;99.90
53045;DHT22;38930;52.766;6.884;2023-02-11T07:42:39;6.90;99.90
53045;DHT22;38930;52.766;6.884;2023-02-11T07:45:06;6.90;99.90
53045;DHT22;38930;52.766;6.884;2023-02-11T07:47:33;6.90;99.90
53045;DHT22;38930;52.766;6.884;2023-02-11T07:49:59;6.90;99.90
53045;DHT22;38930;52.766;6.884;2023-02-11T07:52:24;7.00;99.90
53045;DHT22;38930;52.766;6.884;2023-02-11T07:54:53;7.40;99.90
53045;DHT22;38930;52.766;6.884;2023-02-11T07:57:18;7.70;99.90
53045;DHT22;38930;52.766;6.884;2023-02-11T07:59:44;7.00;99.90
53045;DHT22;38930;52.766;6.884;2023-02-11T08:02:10;7.20;99.90
53045;DHT22;38930;52.766;6.884;2023-02-11T08:04:35;8.00;99.90
53045;DHT22;38930;52.766;6.884;2023-02-11T08:07:01;7.10;99.90
53045;DHT22;38930;52.766;6.884;2023-02-11T08:09:29;7.20;99.90
53045;DHT22;38930;52.766;6.884;2023-02-11T08:11:55;7.10;99.90
53045;DHT22;38930;52.766;6.884;2023-02-11T08:14:20;7.20;99.90
53045;DHT22;38930;52.766;6.884;2023-02-11T08:16:46;7.20;99.90
53045;DHT22;38930;52.766;6.884;2023-02-11T08:19:14;7.50;99.90
53045;DHT22;38930;52.766;6.884;2023-02-11T08:21:40;7.30;99.90
53045;DHT22;38930;52.766;6.884;2023-02-11T08:24:06;7.20;99.90
53045;DHT22;38930;52.766;6.884;2023-02-11T08:26:33;7.30;99.90
53045;DHT22;38930;52.766;6.884;2023-02-11T08:29:00;7.30;99.90
53045;DHT22;38930;52.766;6.884;2023-02-11T08:31:33;7.30;99.90
53045;DHT22;38930;52.766;6.884;2023-02-11T08:33:59;7.30;99.90
53045;DHT22;38930;52.766;6.884;2023-02-11T08:36:29;7.30;99.90
53045;DHT22;38930;52.766;6.884;2023-02-11T08:38:57;7.40;99.90
53045;DHT22;38930;52.766;6.884;2023-02-11T08:41:24;7.40;99.90
53045;DHT22;38930;52.766;6.884;2023-02-11T08:43:49;7.40;99.90
53045;DHT22;38930;52.766;6.884;2023-02-11T08:46:17;7.50;99.90
53045;DHT22;38930;52.766;6.884;2023-02-11T08:48:43;8.10;99.90
53045;DHT22;38930;52.766;6.884;2023-02-11T08:51:13;7.50;99.90
53045;DHT22;38930;52.766;6.884;2023-02-11T08:53:39;7.60;99.90
53045;DHT22;38930;52.766;6.884;2023-02-11T08:56:04;7.60;99.90
53045;DHT22;38930;52.766;6.884;2023-02-11T08:58:31;7.60;99.90
53045;DHT22;38930;52.766;6.884;2023-02-11T09:00:56;7.70;99.90
53045;DHT22;38930;52.766;6.884;2023-02-11T09:03:22;8.10;99.90
53045;DHT22;38930;52.766;6.884;2023-02-11T09:05:48;7.60;99.90
53045;DHT22;38930;52.766;6.884;2023-02-11T09:08:15;7.70;99.90
53045;DHT22;38930;52.766;6.884;2023-02-11T09:10:41;7.70;99.90
53045;DHT22;38930;52.766;6.884;2023-02-11T09:13:08;7.70;99.90
53045;DHT22;38930;52.766;6.884;2023-02-11T09:15:34;7.80;99.90
53045;DHT22;38930;52.766;6.884;2023-02-11T09:18:00;7.80;99.90
53045;DHT22;38930;52.766;6.884;2023-02-11T09:20:26;7.80;99.90
53045;DHT22;38930;52.766;6.884;2023-02-11T09:22:54;8.50;99.90
53045;DHT22;38930;52.766;6.884;2023-02-11T09:25:21;7.80;99.90
53045;DHT22;38930;52.766;6.884;2023-02-11T09:27:47;7.80;99.90
53045;DHT22;38930;52.766;6.884;2023-02-11T09:30:12;7.80;99.90
53045;DHT22;38930;52.766;6.884;2023-02-11T09:32:38;7.90;99.90
53045;DHT22;38930;52.766;6.884;2023-02-11T09:35:04;8.10;99.90
53045;DHT22;38930;52.766;6.884;2023-02-11T09:37:29;7.90;99.90
53045;DHT22;38930;52.766;6.884;2023-02-11T09:39:55;8.20;99.90
53045;DHT22;38930;52.766;6.884;2023-02-11T09:45:02;8.00;99.90
53045;DHT22;38930;52.766;6.884;2023-02-11T09:47:34;8.20;99.90
53045;DHT22;38930;52.766;6.884;2023-02-11T09:50:50;8.10;99.90
53045;DHT22;38930;52.766;6.884;2023-02-11T09:55:40;8.10;99.90
53045;DHT22;38930;52.766;6.884;2023-02-11T09:58:33;8.10;99.90
53045;DHT22;38930;52.766;6.884;2023-02-11T10:04:06;8.20;99.90
53045;DHT22;38930;52.766;6.884;2023-02-11T10:06:46;8.30;99.90
53045;DHT22;38930;52.766;6.884;2023-02-11T10:09:19;8.30;99.90
53045;DHT22;38930;52.766;6.884;2023-02-11T10:12:28;8.30;99.90
53045;DHT22;38930;52.766;6.884;2023-02-11T10:22:51;8.50;99.90
53045;DHT22;38930;52.766;6.884;2023-02-11T10:25:27;8.50;99.90
53045;DHT22;38930;52.766;6.884;2023-02-11T10:27:56;8.90;99.90
53045;DHT22;38930;52.766;6.884;2023-02-11T10:30:30;8.60;99.90
53045;DHT22;38930;52.766;6.884;2023-02-11T10:35:37;8.60;99.90
53045;DHT22;38930;52.766;6.884;2023-02-11T10:38:03;8.70;99.90
53045;DHT22;38930;52.766;6.884;2023-02-11T10:40:30;8.70;99.90
53045;DHT22;38930;52.766;6.884;2023-02-11T10:43:03;8.80;99.90
53045;DHT22;38930;52.766;6.884;2023-02-11T10:48:02;8.90;99.90
53045;DHT22;38930;52.766;6.884;2023-02-11T10:50:30;8.90;99.90
53045;DHT22;38930;52.766;6.884;2023-02-11T10:53:11;9.00;99.90
53045;DHT22;38930;52.766;6.884;2023-02-11T10:55:38;9.00;99.90
53045;DHT22;38930;52.766;6.884;2023-02-11T10:58:30;9.00;99.90
53045;DHT22;38930;52.766;6.884;2023-02-11T11:00:58;9.10;99.90
53045;DHT22;38930;52.766;6.884;2023-02-11T11:03:36;9.10;99.90
53045;DHT22;38930;52.766;6.884;2023-02-11T11:06:07;9.90;99.90
53045;DHT22;38930;52.766;6.884;2023-02-11T11:08:48;9.20;99.90
53045;DHT22;38930;52.766;6.884;2023-02-11T11:11:16;9.20;99.90
53045;DHT22;38930;52.766;6.884;2023-02-11T11:16:22;9.30;99.90
53045;DHT22;38930;52.766;6.884;2023-02-11T11:21:46;9.50;99.90
53045;DHT22;38930;52.766;6.884;2023-02-11T11:24:28;9.30;99.90
53045;DHT22;38930;52.766;6.884;2023-02-11T11:26:57;9.20;99.90
53045;DHT22;38930;52.766;6.884;2023-02-11T11:29:36;9.20;99.90
53045;DHT22;38930;52.766;6.884;2023-02-11T11:32:12;9.20;99.90
53045;DHT22;38930;52.766;6.884;2023-02-11T11:34:42;9.20;99.90
53045;DHT22;38930;52.766;6.884;2023-02-11T11:37:24;9.20;99.90
53045;DHT22;38930;52.766;6.884;2023-02-11T11:40:16;9.20;99.90
53045;DHT22;38930;52.766;6.884;2023-02-11T11:43:05;9.20;99.90
53045;DHT22;38930;52.766;6.884;2023-02-11T11:45:31;9.20;99.90
53045;DHT22;38930;52.766;6.884;2023-02-11T11:48:17;9.20;99.90
53045;DHT22;38930;52.766;6.884;2023-02-11T11:51:01;9.20;99.90
53045;DHT22;38930;52.766;6.884;2023-02-11T11:53:36;9.10;99.90
53045;DHT22;38930;52.766;6.884;2023-02-11T11:56:37;9.20;99.90
53045;DHT22;38930;52.766;6.884;2023-02-11T11:59:08;9.10;99.90
53045;DHT22;38930;52.766;6.884;2023-02-11T12:01:57;9.10;99.90
53045;DHT22;38930;52.766;6.884;2023-02-11T12:15:55;9.00;99.90
53045;DHT22;38930;52.766;6.884;2023-02-11T12:26:21;9.20;99.90
53045;DHT22;38930;52.766;6.884;2023-02-11T12:54:32;9.60;99.90
53045;DHT22;38930;52.766;6.884;2023-02-11T12:57:21;9.60;99.90
53045;DHT22;38930;52.766;6.884;2023-02-11T13:00:02;9.60;99.90
53045;DHT22;38930;52.766;6.884;2023-02-11T13:02:48;9.60;99.90
53045;DHT22;38930;52.766;6.884;2023-02-11T13:05:37;9.60;99.90
53045;DHT22;38930;52.766;6.884;2023-02-11T13:10:42;9.60;99.90
53045;DHT22;38930;52.766;6.884;2023-02-11T13:15:54;9.60;99.90
53045;DHT22;38930;52.766;6.884;2023-02-11T13:18:26;10.20;99.90
53045;DHT22;38930;52.766;6.884;2023-02-11T13:23:33;9.60;99.90
53045;DHT22;38930;52.766;6.884;2023-02-11T13:26:10;10.00;99.90
53045;DHT22;38930;52.766;6.884;2023-02-11T13:31:09;9.60;99.90
53045;DHT22;38930;52.766;6.884;2023-02-11T13:33:41;9.60;99.90
53045;DHT22;38930;52.766;6.884;2023-02-11T13:38:34;9.70;99.90
53045;DHT22;38930;52.766;6.884;2023-02-11T13:43:32;9.70;99.90
53045;DHT22;38930;52.766;6.884;2023-02-11T13:46:04;9.70;99.90
53045;DHT22;38930;52.766;6.884;2023-02-11T13:48:56;9.70;99.90
53045;DHT22;38930;52.766;6.884;2023-02-11T13:51:38;9.70;99.90
53045;DHT22;38930;52.766;6.884;2023-02-11T13:54:05;9.80;99.90
53045;DHT22;38930;52.766;6.884;2023-02-11T13:58:59;10.10;99.90
53045;DHT22;38930;52.766;6.884;2023-02-11T14:01:39;10.00;99.90
53045;DHT22;38930;52.766;6.884;2023-02-11T14:04:20;9.90;99.90
53045;DHT22;38930;52.766;6.884;2023-02-11T14:07:29;10.00;99.90
53045;DHT22;38930;52.766;6.884;2023-02-11T14:13:27;10.00;99.90
53045;DHT22;38930;52.766;6.884;2023-02-11T14:16:14;10.30;99.90
53045;DHT22;38930;52.766;6.884;2023-02-11T14:23:53;10.00;99.90
53045;DHT22;38930;52.766;6.884;2023-02-11T14:32:42;10.20;99.90
53045;DHT22;38930;52.766;6.884;2023-02-11T14:35:35;10.10;99.90
53045;DHT22;38930;52.766;6.884;2023-02-11T14:41:06;10.10;99.90
53045;DHT22;38930;52.766;6.884;2023-02-11T14:43:41;10.00;99.90
53045;DHT22;38930;52.766;6.884;2023-02-11T14:46:09;10.00;99.90
53045;DHT22;38930;52.766;6.884;2023-02-11T14:48:36;10.00;99.90
53045;DHT22;38930;52.766;6.884;2023-02-11T14:51:10;10.10;99.90
53045;DHT22;38930;52.766;6.884;2023-02-11T14:53:43;10.00;99.90
53045;DHT22;38930;52.766;6.884;2023-02-11T14:56:18;10.00;99.90
53045;DHT22;38930;52.766;6.884;2023-02-11T14:58:48;10.00;99.90
53045;DHT22;38930;52.766;6.884;2023-02-11T15:01:34;10.00;99.90
53045;DHT22;38930;52.766;6.884;2023-02-11T15:04:01;10.00;99.90
53045;DHT22;38930;52.766;6.884;2023-02-11T15:06:32;10.10;99.90
53045;DHT22;38930;52.766;6.884;2023-02-11T15:09:04;10.00;99.90
53045;DHT22;38930;52.766;6.884;2023-02-11T15:11:33;10.00;99.90
53045;DHT22;38930;52.766;6.884;2023-02-11T15:14:20;10.00;99.90
53045;DHT22;38930;52.766;6.884;2023-02-11T15:16:47;10.10;99.90
53045;DHT22;38930;52.766;6.884;2023-02-11T15:19:30;10.10;99.90
53045;DHT22;38930;52.766;6.884;2023-02-11T15:21:57;10.10;99.90
53045;DHT22;38930;52.766;6.884;2023-02-11T15:24:32;10.10;99.90
53045;DHT22;38930;52.766;6.884;2023-02-11T15:29:36;9.90;99.90
53045;DHT22;38930;52.766;6.884;2023-02-11T15:32:11;9.90;99.90
53045;DHT22;38930;52.766;6.884;2023-02-11T15:34:37;9.90;99.90
53045;DHT22;38930;52.766;6.884;2023-02-11T15:37:03;9.90;99.90
53045;DHT22;38930;52.766;6.884;2023-02-11T15:39:39;9.70;99.90
53045;DHT22;38930;52.766;6.884;2023-02-11T15:48:06;9.60;99.90
53045;DHT22;38930;52.766;6.884;2023-02-11T15:50:34;9.60;99.90
53045;DHT22;38930;52.766;6.884;2023-02-11T15:55:41;9.50;99.90
53045;DHT22;38930;52.766;6.884;2023-02-11T15:58:08;9.50;99.90
53045;DHT22;38930;52.766;6.884;2023-02-11T16:00:37;9.50;99.90
53045;DHT22;38930;52.766;6.884;2023-02-11T16:03:22;9.50;99.90
53045;DHT22;38930;52.766;6.884;2023-02-11T16:05:48;9.40;99.90
53045;DHT22;38930;52.766;6.884;2023-02-11T16:08:32;9.40;99.90
53045;DHT22;38930;52.766;6.884;2023-02-11T16:11:02;9.40;99.90
53045;DHT22;38930;52.766;6.884;2023-02-11T16:13:43;9.40;99.90
53045;DHT22;38930;52.766;6.884;2023-02-11T16:16:24;9.40;99.90
53045;DHT22;38930;52.766;6.884;2023-02-11T16:18:53;9.30;99.90
53045;DHT22;38930;52.766;6.884;2023-02-11T16:21:28;9.30;99.90
53045;DHT22;38930;52.766;6.884;2023-02-11T16:23:57;9.30;99.90
53045;DHT22;38930;52.766;6.884;2023-02-11T16:26:25;9.30;99.90
53045;DHT22;38930;52.766;6.884;2023-02-11T16:28:52;9.20;99.90
53045;DHT22;38930;52.766;6.884;2023-02-11T16:31:18;9.20;99.90
53045;DHT22;38930;52.766;6.884;2023-02-11T16:33:43;9.10;99.90
53045;DHT22;38930;52.766;6.884;2023-02-11T16:36:11;9.10;99.90
53045;DHT22;38930;52.766;6.884;2023-02-11T16:38:38;9.10;99.90
53045;DHT22;38930;52.766;6.884;2023-02-11T16:41:03;9.10;99.90
53045;DHT22;38930;52.766;6.884;2023-02-11T16:43:29;9.10;99.90
53045;DHT22;38930;52.766;6.884;2023-02-11T16:45:55;9.00;99.90
53045;DHT22;38930;52.766;6.884;2023-02-11T16:48:22;9.00;99.90
53045;DHT22;38930;52.766;6.884;2023-02-11T16:50:49;9.00;99.90
53045;DHT22;38930;52.766;6.884;2023-02-11T16:53:15;9.00;99.90
53045;DHT22;38930;52.766;6.884;2023-02-11T16:55:42;8.90;99.90
53045;DHT22;38930;52.766;6.884;2023-02-11T16:58:08;9.00;99.90
53045;DHT22;38930;52.766;6.884;2023-02-11T17:00:35;9.50;99.90
53045;DHT22;38930;52.766;6.884;2023-02-11T17:03:02;9.10;99.90
53045;DHT22;38930;52.766;6.884;2023-02-11T17:05:29;9.60;99.90
53045;DHT22;38930;52.766;6.884;2023-02-11T17:07:55;8.80;99.90
53045;DHT22;38930;52.766;6.884;2023-02-11T17:10:22;8.80;99.90
53045;DHT22;38930;52.766;6.884;2023-02-11T17:12:48;9.10;99.90
53045;DHT22;38930;52.766;6.884;2023-02-11T17:15:15;8.80;99.90
53045;DHT22;38930;52.766;6.884;2023-02-11T17:17:41;8.70;99.90
53045;DHT22;38930;52.766;6.884;2023-02-11T17:20:07;8.70;99.90
53045;DHT22;38930;52.766;6.884;2023-02-11T17:22:33;8.70;99.90
53045;DHT22;38930;52.766;6.884;2023-02-11T17:24:59;8.70;99.90
53045;DHT22;38930;52.766;6.884;2023-02-11T17:27:24;8.80;99.90
53045;DHT22;38930;52.766;6.884;2023-02-11T17:29:50;8.70;99.90
53045;DHT22;38930;52.766;6.884;2023-02-11T17:32:15;8.60;99.90
53045;DHT22;38930;52.766;6.884;2023-02-11T17:34:41;8.60;99.90
53045;DHT22;38930;52.766;6.884;2023-02-11T17:37:07;8.60;99.90
53045;DHT22;38930;52.766;6.884;2023-02-11T17:39:36;8.60;99.90
53045;DHT22;38930;52.766;6.884;2023-02-11T17:42:01;8.50;99.90
53045;DHT22;38930;52.766;6.884;2023-02-11T17:44:27;8.50;99.90
53045;DHT22;38930;52.766;6.884;2023-02-11T17:46:53;9.20;99.90
53045;DHT22;38930;52.766;6.884;2023-02-11T17:49:18;8.50;99.90
53045;DHT22;38930;52.766;6.884;2023-02-11T17:51:45;8.50;99.90
53045;DHT22;38930;52.766;6.884;2023-02-11T17:54:13;8.50;99.90
53045;DHT22;38930;52.766;6.884;2023-02-11T17:56:40;8.40;99.90
53045;DHT22;38930;52.766;6.884;2023-02-11T17:59:06;9.00;99.90
53045;DHT22;38930;52.766;6.884;2023-02-11T18:01:34;8.40;99.90
53045;DHT22;38930;52.766;6.884;2023-02-11T18:04:00;8.70;99.90
53045;DHT22;38930;52.766;6.884;2023-02-11T18:06:26;8.90;99.90
53045;DHT22;38930;52.766;6.884;2023-02-11T18:08:54;8.30;99.90
53045;DHT22;38930;52.766;6.884;2023-02-11T18:11:22;8.30;99.90
53045;DHT22;38930;52.766;6.884;2023-02-11T18:13:49;8.30;99.90
53045;DHT22;38930;52.766;6.884;2023-02-11T18:16:19;8.20;99.90
53045;DHT22;38930;52.766;6.884;2023-02-11T18:18:45;8.20;99.90
53045;DHT22;38930;52.766;6.884;2023-02-11T18:21:16;8.20;99.90
53045;DHT22;38930;52.766;6.884;2023-02-11T18:23:44;8.20;99.90
53045;DHT22;38930;52.766;6.884;2023-02-11T18:26:12;8.20;99.90
53045;DHT22;38930;52.766;6.884;2023-02-11T18:28:38;8.20;99.90